createdAt,value
2018-07-02T00:00:38.873Z,17.65
2018-07-02T00:01:38.875Z,17.65
2018-07-02T00:02:38.878Z,17.60
2018-07-02T00:03:38.879Z,17.68
2018-07-02T00:04:38.883Z,17.56
2018-07-02T00:05:38.884Z,17.54
2018-07-02T00:06:38.889Z,17.44
2018-07-02T00:07:38.890Z,17.41
2018-07-02T00:08:38.893Z,17.30
2018-07-02T00:09:38.895Z,17.26
2018-07-02T00:10:38.899Z,17.30
2018-07-02T00:11:38.898Z,17.29
2018-07-02T00:12:38.902Z,17.30
2018-07-02T00:13:38.906Z,17.27
2018-07-02T00:14:38.908Z,17.26
2018-07-02T00:15:38.910Z,17.24
2018-07-02T00:16:38.912Z,17.22
2018-07-02T00:17:38.915Z,17.16
2018-07-02T00:18:38.916Z,17.08
2018-07-02T00:19:38.921Z,16.99
2018-07-02T00:20:38.924Z,16.99
2018-07-02T00:21:38.925Z,16.94
2018-07-02T00:22:38.926Z,16.97
2018-07-02T00:23:38.929Z,16.86
2018-07-02T00:24:38.933Z,16.87
2018-07-02T00:25:38.934Z,16.96
2018-07-02T00:26:38.937Z,16.94
2018-07-02T00:27:38.938Z,17.01
2018-07-02T00:28:38.942Z,17.06
2018-07-02T00:29:38.943Z,17.01
2018-07-02T00:30:38.946Z,17.06
2018-07-02T00:31:38.948Z,17.11
2018-07-02T00:32:38.953Z,17.11
2018-07-02T00:33:38.951Z,17.09
2018-07-02T00:34:38.956Z,17.15
2018-07-02T00:35:38.957Z,17.20
2018-07-02T00:36:38.960Z,17.19
2018-07-02T00:37:38.961Z,17.16
2018-07-02T00:38:38.965Z,17.14
2018-07-02T00:39:38.966Z,17.19
2018-07-02T00:40:38.972Z,17.16
2018-07-02T00:41:38.970Z,17.14
2018-07-02T00:42:39.018Z,17.22
2018-07-02T00:43:38.975Z,17.12
2018-07-02T00:44:38.977Z,17.08
2018-07-02T00:45:38.980Z,17.11
2018-07-02T00:46:38.983Z,17.11
2018-07-02T00:47:38.984Z,17.06
2018-07-02T00:48:38.986Z,17.04
2018-07-02T00:49:38.989Z,16.91
2018-07-02T00:50:38.989Z,17.04
2018-07-02T00:51:38.991Z,17.08
2018-07-02T00:52:38.995Z,17.08
2018-07-02T00:53:38.997Z,17.04
2018-07-02T00:54:38.999Z,17.05
2018-07-02T00:55:39.004Z,16.96
2018-07-02T00:56:39.003Z,16.97
2018-07-02T00:57:39.005Z,16.93
2018-07-02T00:58:39.006Z,16.90
2018-07-02T00:59:39.011Z,16.83
2018-07-02T01:00:39.010Z,16.86
2018-07-02T01:01:39.013Z,16.75
2018-07-02T01:02:39.015Z,16.72
2018-07-02T01:03:39.017Z,16.68
2018-07-02T01:04:39.018Z,16.74
2018-07-02T01:05:39.021Z,16.69
2018-07-02T01:06:39.023Z,16.72
2018-07-02T01:07:39.025Z,16.83
2018-07-02T01:08:39.027Z,16.83
2018-07-02T01:09:39.029Z,16.86
2018-07-02T01:10:39.031Z,16.78
2018-07-02T01:11:39.033Z,16.81
2018-07-02T01:12:39.035Z,16.74
2018-07-02T01:13:39.037Z,16.74
2018-07-02T01:14:39.039Z,16.74
2018-07-02T01:15:39.040Z,16.74
2018-07-02T01:16:39.041Z,16.66
2018-07-02T01:17:39.044Z,16.64
2018-07-02T01:18:39.045Z,16.61
2018-07-02T01:19:39.048Z,16.61
2018-07-02T01:20:39.050Z,16.68
2018-07-02T01:21:39.052Z,16.68
2018-07-02T01:22:39.055Z,16.66
2018-07-02T01:23:39.056Z,16.60
2018-07-02T01:24:39.058Z,16.68
2018-07-02T01:25:39.058Z,16.60
2018-07-02T01:26:39.061Z,16.66
2018-07-02T01:27:39.063Z,16.68
2018-07-02T01:28:39.066Z,16.65
2018-07-02T01:29:39.069Z,16.60
2018-07-02T01:30:39.068Z,16.60
2018-07-02T01:31:39.069Z,16.60
2018-07-02T01:32:39.071Z,16.60
2018-07-02T01:33:39.073Z,16.69
2018-07-02T01:34:39.075Z,16.65
2018-07-02T01:35:39.079Z,16.68
2018-07-02T01:36:39.078Z,16.65
2018-07-02T01:37:39.079Z,16.53
2018-07-02T01:38:39.083Z,16.53
2018-07-02T01:39:39.083Z,16.54
2018-07-02T01:40:39.085Z,16.43
2018-07-02T01:41:39.086Z,16.50
2018-07-02T01:42:39.089Z,16.41
2018-07-02T01:43:39.089Z,16.33
2018-07-02T01:44:39.091Z,16.38
2018-07-02T01:45:39.094Z,16.36
2018-07-02T01:46:39.096Z,16.42
2018-07-02T01:47:39.098Z,16.50
2018-07-02T01:48:39.098Z,16.57
2018-07-02T01:49:39.100Z,16.65
2018-07-02T01:50:39.103Z,16.60
2018-07-02T01:51:39.102Z,16.54
2018-07-02T01:52:39.206Z,16.46
2018-07-02T01:53:39.109Z,16.51
2018-07-02T01:54:39.108Z,16.43
2018-07-02T01:55:39.110Z,16.42
2018-07-02T01:56:39.111Z,16.42
2018-07-02T01:57:39.113Z,16.47
2018-07-02T01:58:39.115Z,16.50
2018-07-02T01:59:39.115Z,16.43
2018-07-02T02:00:39.117Z,16.43
2018-07-02T02:01:39.118Z,16.36
2018-07-02T02:02:39.119Z,16.50
2018-07-02T02:03:39.120Z,16.42
2018-07-02T02:04:39.122Z,16.39
2018-07-02T02:05:39.124Z,16.39
2018-07-02T02:06:39.125Z,16.42
2018-07-02T02:07:39.126Z,16.41
2018-07-02T02:08:39.129Z,16.43
2018-07-02T02:09:39.131Z,16.43
2018-07-02T02:10:39.132Z,16.41
2018-07-02T02:11:39.133Z,16.39
2018-07-02T02:12:39.134Z,16.43
2018-07-02T02:13:39.136Z,16.32
2018-07-02T02:14:39.143Z,16.38
2018-07-02T02:15:39.139Z,16.35
2018-07-02T02:16:39.140Z,16.32
2018-07-02T02:17:39.141Z,16.28
2018-07-02T02:18:39.144Z,16.20
2018-07-02T02:19:39.144Z,16.15
2018-07-02T02:20:39.145Z,16.15
2018-07-02T02:21:39.148Z,16.15
2018-07-02T02:22:39.149Z,16.16
2018-07-02T02:23:39.150Z,16.12
2018-07-02T02:24:39.152Z,16.13
2018-07-02T02:25:39.153Z,16.16
2018-07-02T02:26:39.155Z,16.16
2018-07-02T02:27:39.155Z,16.16
2018-07-02T02:28:39.157Z,16.15
2018-07-02T02:29:39.158Z,16.24
2018-07-02T02:30:39.160Z,16.16
2018-07-02T02:31:39.161Z,16.16
2018-07-02T02:32:39.163Z,16.26
2018-07-02T02:33:39.163Z,16.24
2018-07-02T02:34:39.165Z,16.15
2018-07-02T02:35:39.165Z,16.12
2018-07-02T02:36:39.167Z,16.15
2018-07-02T02:37:39.168Z,16.17
2018-07-02T02:38:39.169Z,16.20
2018-07-02T02:39:39.171Z,16.24
2018-07-02T02:40:39.172Z,16.17
2018-07-02T02:41:39.174Z,16.31
2018-07-02T02:42:39.175Z,16.17
2018-07-02T02:43:39.179Z,16.20
2018-07-02T02:44:39.178Z,16.31
2018-07-02T02:45:39.178Z,16.26
2018-07-02T02:46:39.179Z,16.24
2018-07-02T02:47:39.179Z,16.20
2018-07-02T02:48:39.183Z,16.21
2018-07-02T02:49:39.189Z,16.32
2018-07-02T02:50:39.185Z,16.31
2018-07-02T02:51:39.185Z,16.23
2018-07-02T02:52:39.188Z,16.26
2018-07-02T02:53:39.187Z,16.20
2018-07-02T02:54:39.190Z,16.17
2018-07-02T02:55:39.189Z,16.32
2018-07-02T02:56:39.191Z,16.26
2018-07-02T02:57:39.192Z,16.13
2018-07-02T02:58:39.195Z,16.15
2018-07-02T02:59:39.193Z,16.32
2018-07-02T03:00:39.195Z,16.29
2018-07-02T03:01:39.196Z,16.31
2018-07-02T03:02:39.198Z,16.26
2018-07-02T03:03:39.200Z,16.13
2018-07-02T03:04:39.200Z,16.20
2018-07-02T03:05:39.201Z,16.17
2018-07-02T03:06:39.201Z,16.12
2018-07-02T03:07:39.202Z,16.16
2018-07-02T03:08:39.203Z,16.20
2018-07-02T03:09:39.268Z,16.15
2018-07-02T03:10:39.206Z,16.17
2018-07-02T03:11:39.207Z,16.13
2018-07-02T03:12:39.209Z,16.12
2018-07-02T03:13:39.208Z,16.05
2018-07-02T03:14:39.209Z,16.04
2018-07-02T03:15:39.211Z,16.10
2018-07-02T03:16:39.212Z,16.01
2018-07-02T03:17:39.213Z,16.02
2018-07-02T03:18:39.226Z,16.12
2018-07-02T03:19:39.214Z,16.12
2018-07-02T03:20:39.216Z,16.12
2018-07-02T03:21:39.216Z,16.13
2018-07-02T03:22:39.217Z,16.04
2018-07-02T03:23:39.219Z,16.13
2018-07-02T03:24:39.220Z,16.12
2018-07-02T03:25:39.221Z,16.16
2018-07-02T03:26:39.222Z,16.15
2018-07-02T03:27:39.222Z,16.05
2018-07-02T03:28:39.223Z,16.08
2018-07-02T03:29:39.224Z,16.09
2018-07-02T03:30:39.233Z,15.98
2018-07-02T03:31:39.226Z,16.05
2018-07-02T03:32:39.227Z,16.10
2018-07-02T03:33:39.228Z,16.02
2018-07-02T03:34:39.228Z,16.10
2018-07-02T03:35:39.228Z,16.04
2018-07-02T03:36:39.231Z,16.09
2018-07-02T03:37:39.231Z,15.98
2018-07-02T03:38:39.232Z,16.10
2018-07-02T03:39:39.231Z,16.10
2018-07-02T03:40:39.232Z,16.04
2018-07-02T03:41:39.234Z,16.05
2018-07-02T03:42:39.237Z,16.02
2018-07-02T03:43:39.235Z,16.01
2018-07-02T03:44:39.235Z,16.08
2018-07-02T03:45:39.237Z,16.00
2018-07-02T03:46:39.236Z,15.97
2018-07-02T03:47:39.237Z,15.94
2018-07-02T03:48:39.237Z,15.92
2018-07-02T03:49:39.240Z,16.04
2018-07-02T03:50:39.240Z,15.98
2018-07-02T03:51:39.239Z,15.91
2018-07-02T03:52:39.241Z,15.98
2018-07-02T03:53:39.242Z,16.02
2018-07-02T03:54:39.246Z,16.02
2018-07-02T03:55:39.244Z,16.02
2018-07-02T03:56:39.244Z,15.98
2018-07-02T03:57:39.246Z,15.95
2018-07-02T03:58:39.245Z,16.00
2018-07-02T03:59:39.246Z,15.97
2018-07-02T04:00:39.247Z,15.95
2018-07-02T04:01:39.248Z,16.05
2018-07-02T04:02:39.248Z,16.01
2018-07-02T04:03:39.249Z,16.04
2018-07-02T04:04:39.249Z,16.02
2018-07-02T04:05:39.250Z,16.04
2018-07-02T04:06:39.253Z,16.04
2018-07-02T04:07:39.258Z,16.04
2018-07-02T04:08:39.253Z,16.05
2018-07-02T04:09:39.253Z,16.01
2018-07-02T04:10:39.254Z,16.02
2018-07-02T04:11:39.254Z,16.01
2018-07-02T04:12:39.260Z,16.00
2018-07-02T04:13:39.257Z,16.08
2018-07-02T04:14:39.256Z,16.05
2018-07-02T04:15:39.259Z,16.04
2018-07-02T04:16:39.258Z,15.98
2018-07-02T04:17:39.260Z,16.01
2018-07-02T04:18:39.259Z,16.01
2018-07-02T04:19:39.260Z,16.01
2018-07-02T04:20:39.261Z,16.02
2018-07-02T04:21:39.263Z,16.00
2018-07-02T04:22:39.264Z,15.97
2018-07-02T04:23:39.261Z,16.04
2018-07-02T04:24:39.264Z,15.95
2018-07-02T04:25:39.265Z,15.98
2018-07-02T04:26:39.266Z,16.05
2018-07-02T04:27:39.267Z,16.05
2018-07-02T04:28:39.269Z,16.10
2018-07-02T04:29:39.270Z,16.10
2018-07-02T04:30:39.270Z,16.10
2018-07-02T04:31:39.273Z,16.15
2018-07-02T04:32:39.312Z,16.15
2018-07-02T04:33:39.272Z,16.10
2018-07-02T04:34:39.272Z,16.15
2018-07-02T04:35:39.272Z,16.15
2018-07-02T04:36:39.275Z,16.31
2018-07-02T04:37:39.275Z,16.17
2018-07-02T04:38:39.277Z,16.16
2018-07-02T04:39:39.276Z,16.13
2018-07-02T04:40:39.277Z,16.17
2018-07-02T04:41:39.279Z,16.24
2018-07-02T04:42:39.281Z,16.17
2018-07-02T04:43:39.279Z,16.32
2018-07-02T04:44:39.279Z,16.26
2018-07-02T04:45:39.284Z,16.32
2018-07-02T04:46:39.285Z,16.32
2018-07-02T04:47:39.283Z,16.29
2018-07-02T04:48:39.284Z,16.43
2018-07-02T04:49:39.285Z,16.41
2018-07-02T04:50:39.285Z,16.41
2018-07-02T04:51:39.286Z,16.42
2018-07-02T04:52:39.287Z,16.39
2018-07-02T04:53:39.289Z,16.42
2018-07-02T04:54:39.290Z,16.46
2018-07-02T04:55:39.290Z,16.39
2018-07-02T04:56:39.293Z,16.36
2018-07-02T04:57:39.292Z,16.47
2018-07-02T04:58:39.293Z,16.50
2018-07-02T04:59:39.346Z,16.46
2018-07-02T05:00:39.296Z,16.46
2018-07-02T05:01:39.297Z,16.46
2018-07-02T05:02:39.297Z,16.51
2018-07-02T05:03:39.299Z,16.51
2018-07-02T05:04:39.298Z,16.51
2018-07-02T05:05:39.301Z,16.51
2018-07-02T05:06:39.301Z,16.54
2018-07-02T05:07:39.342Z,16.61
2018-07-02T05:08:39.303Z,16.49
2018-07-02T05:09:39.306Z,16.51
2018-07-02T05:10:39.306Z,16.60
2018-07-02T05:11:39.307Z,16.61
2018-07-02T05:12:39.308Z,16.57
2018-07-02T05:13:39.312Z,16.56
2018-07-02T05:14:39.311Z,16.57
2018-07-02T05:15:39.312Z,16.58
2018-07-02T05:16:39.311Z,16.64
2018-07-02T05:17:39.313Z,16.71
2018-07-02T05:18:39.314Z,16.74
2018-07-02T05:19:39.316Z,16.69
2018-07-02T05:20:39.317Z,16.75
2018-07-02T05:21:39.317Z,16.72
2018-07-02T05:22:39.319Z,16.97
2018-07-02T05:23:39.320Z,17.76
2018-07-02T05:24:39.330Z,19.19
2018-07-02T05:25:39.323Z,20.55
2018-07-02T05:26:39.327Z,21.12
2018-07-02T05:27:39.329Z,21.79
2018-07-02T05:28:39.332Z,22.23
2018-07-02T05:29:39.337Z,22.73
2018-07-02T05:30:39.342Z,23.02
2018-07-02T05:31:39.347Z,23.32
2018-07-02T05:32:39.353Z,23.61
2018-07-02T05:33:39.359Z,23.36
2018-07-02T05:34:39.366Z,23.09
2018-07-02T05:35:39.374Z,22.96
2018-07-02T05:36:39.381Z,23.59
2018-07-02T05:37:39.391Z,23.92
2018-07-02T05:38:39.399Z,24.05
2018-07-02T05:39:39.407Z,24.17
2018-07-02T05:40:39.418Z,24.03
2018-07-02T05:41:39.427Z,23.95
2018-07-02T05:42:39.439Z,24.23
2018-07-02T05:43:39.447Z,24.18
2018-07-02T05:44:39.458Z,24.03
2018-07-02T05:45:39.468Z,23.56
2018-07-02T05:46:39.480Z,23.44
2018-07-02T05:47:39.491Z,23.40
2018-07-02T05:48:39.559Z,23.05
2018-07-02T05:49:39.514Z,22.85
2018-07-02T05:50:39.524Z,22.11
2018-07-02T05:51:39.535Z,21.60
2018-07-02T05:52:39.545Z,21.40
2018-07-02T05:53:39.556Z,21.11
2018-07-02T05:54:39.566Z,20.52
2018-07-02T05:55:39.577Z,20.04
2018-07-02T05:56:39.585Z,20.06
2018-07-02T05:57:39.594Z,19.94
2018-07-02T05:58:39.603Z,19.89
2018-07-02T05:59:39.614Z,19.92
2018-07-02T06:00:39.648Z,19.89
2018-07-02T06:01:39.629Z,19.49
2018-07-02T06:02:39.637Z,19.30
2018-07-02T06:03:39.647Z,19.29
2018-07-02T06:04:39.652Z,19.31
2018-07-02T06:05:39.660Z,19.30
2018-07-02T06:06:39.668Z,19.39
2018-07-02T06:07:39.674Z,19.07
2018-07-02T06:08:39.680Z,19.08
2018-07-02T06:09:39.688Z,19.07
2018-07-02T06:10:39.695Z,19.04
2018-07-02T06:11:39.701Z,19.16
2018-07-02T06:12:39.708Z,19.30
2018-07-02T06:13:39.716Z,19.33
2018-07-02T06:14:39.731Z,19.24
2018-07-02T06:15:39.724Z,19.08
2018-07-02T06:16:39.800Z,19.26
2018-07-02T06:17:39.738Z,19.21
2018-07-02T06:18:39.745Z,19.14
2018-07-02T06:19:39.749Z,19.09
2018-07-02T06:20:39.754Z,19.21
2018-07-02T06:21:39.761Z,19.22
2018-07-02T06:22:39.766Z,19.22
2018-07-02T06:23:39.769Z,19.29
2018-07-02T06:24:39.778Z,19.41
2018-07-02T06:25:39.780Z,19.39
2018-07-02T06:26:39.790Z,19.41
2018-07-02T06:27:39.790Z,19.54
2018-07-02T06:28:39.798Z,19.34
2018-07-02T06:29:39.801Z,19.41
2018-07-02T06:30:39.807Z,19.39
2018-07-02T06:31:39.811Z,19.49
2018-07-02T06:32:39.815Z,19.55
2018-07-02T06:33:39.824Z,19.66
2018-07-02T06:34:39.825Z,19.71
2018-07-02T06:35:39.829Z,19.79
2018-07-02T06:36:39.834Z,19.67
2018-07-02T06:37:39.842Z,19.69
2018-07-02T06:38:39.843Z,19.77
2018-07-02T06:39:39.848Z,19.77
2018-07-02T06:40:39.852Z,19.99
2018-07-02T06:41:39.857Z,20.09
2018-07-02T06:42:39.862Z,20.10
2018-07-02T06:43:39.868Z,20.16
2018-07-02T06:44:39.869Z,20.19
2018-07-02T06:45:39.875Z,20.24
2018-07-02T06:46:39.879Z,20.31
2018-07-02T06:47:39.882Z,20.37
2018-07-02T06:48:39.888Z,20.39
2018-07-02T06:49:39.893Z,20.29
2018-07-02T06:50:39.900Z,20.37
2018-07-02T06:51:39.900Z,20.47
2018-07-02T06:52:39.906Z,20.55
2018-07-02T06:53:39.911Z,20.55
2018-07-02T06:54:39.916Z,20.60
2018-07-02T06:55:39.919Z,20.66
2018-07-02T06:56:39.923Z,20.60
2018-07-02T06:57:39.928Z,20.65
2018-07-02T06:58:39.983Z,20.60
2018-07-02T06:59:39.937Z,20.66
2018-07-02T07:00:39.964Z,20.70
2018-07-02T07:01:39.947Z,20.63
2018-07-02T07:02:39.949Z,20.75
2018-07-02T07:03:39.956Z,20.81
2018-07-02T07:04:39.958Z,20.84
2018-07-02T07:05:39.964Z,20.93
2018-07-02T07:06:39.971Z,20.82
2018-07-02T07:07:39.976Z,21.02
2018-07-02T07:08:39.994Z,21.00
2018-07-02T07:09:39.982Z,21.03
2018-07-02T07:10:39.986Z,21.18
2018-07-02T07:11:39.991Z,21.11
2018-07-02T07:12:39.996Z,21.02
2018-07-02T07:13:40.000Z,20.95
2018-07-02T07:14:40.007Z,21.09
2018-07-02T07:15:40.031Z,21.21
2018-07-02T07:16:40.014Z,21.40
2018-07-02T07:17:40.022Z,21.50
2018-07-02T07:18:40.024Z,21.48
2018-07-02T07:19:40.028Z,21.40
2018-07-02T07:20:40.033Z,21.54
2018-07-02T07:21:40.037Z,21.61
2018-07-02T07:22:40.043Z,21.52
2018-07-02T07:23:40.047Z,21.58
2018-07-02T07:24:40.051Z,21.60
2018-07-02T07:25:40.088Z,21.72
2018-07-02T07:26:40.061Z,21.76
2018-07-02T07:27:40.071Z,21.79
2018-07-02T07:28:40.071Z,21.82
2018-07-02T07:29:40.075Z,21.83
2018-07-02T07:30:40.080Z,21.96
2018-07-02T07:31:40.085Z,22.10
2018-07-02T07:32:40.105Z,22.32
2018-07-02T07:33:40.096Z,22.59
2018-07-02T07:34:40.103Z,23.08
2018-07-02T07:35:40.108Z,23.50
2018-07-02T07:36:40.114Z,24.43
2018-07-02T07:37:40.123Z,25.23
2018-07-02T07:38:40.130Z,25.87
2018-07-02T07:39:40.138Z,25.84
2018-07-02T07:40:40.148Z,25.88
2018-07-02T07:41:40.158Z,26.60
2018-07-02T07:42:40.166Z,27.36
2018-07-02T07:43:40.177Z,27.95
2018-07-02T07:44:40.188Z,27.36
2018-07-02T07:45:40.200Z,26.65
2018-07-02T07:46:40.215Z,27.45
2018-07-02T07:47:40.223Z,27.30
2018-07-02T07:48:40.234Z,27.78
2018-07-02T07:49:40.250Z,27.98
2018-07-02T07:50:40.263Z,27.78
2018-07-02T07:51:40.274Z,27.96
2018-07-02T07:52:40.289Z,27.47
2018-07-02T07:53:40.303Z,26.63
2018-07-02T07:54:40.317Z,27.12
2018-07-02T07:55:40.331Z,27.51
2018-07-02T07:56:40.348Z,27.35
2018-07-02T07:57:40.361Z,27.83
2018-07-02T07:58:40.375Z,27.78
2018-07-02T07:59:40.392Z,27.39
2018-07-02T08:00:40.407Z,27.42
2018-07-02T08:01:40.421Z,28.14
2018-07-02T08:02:40.436Z,28.39
2018-07-02T08:03:40.462Z,29.08
2018-07-02T08:04:40.467Z,29.04
2018-07-02T08:05:40.482Z,29.38
2018-07-02T08:06:40.497Z,29.08
2018-07-02T08:07:40.513Z,29.36
2018-07-02T08:08:40.527Z,30.00
2018-07-02T08:09:40.544Z,30.09
2018-07-02T08:10:40.561Z,29.66
2018-07-02T08:11:40.574Z,29.49
2018-07-02T08:12:40.590Z,29.78
2018-07-02T08:13:40.606Z,29.73
2018-07-02T08:14:40.622Z,29.50
2018-07-02T08:15:40.638Z,29.39
2018-07-02T08:16:40.654Z,29.38
2018-07-02T08:17:40.674Z,29.63
2018-07-02T08:18:40.686Z,29.75
2018-07-02T08:19:40.705Z,30.23
2018-07-02T08:20:40.722Z,30.59
2018-07-02T08:21:40.735Z,30.55
2018-07-02T08:22:40.752Z,30.90
2018-07-02T08:23:40.767Z,30.77
2018-07-02T08:24:40.783Z,30.44
2018-07-02T08:25:40.801Z,31.03
2018-07-02T08:26:40.817Z,31.05
2018-07-02T08:27:40.834Z,29.47
2018-07-02T08:28:40.869Z,28.54
2018-07-02T08:29:40.867Z,29.56
2018-07-02T08:30:40.885Z,29.72
2018-07-02T08:31:40.902Z,29.31
2018-07-02T08:32:40.917Z,29.07
2018-07-02T08:33:40.935Z,29.45
2018-07-02T08:34:40.952Z,29.76
2018-07-02T08:35:40.968Z,29.93
2018-07-02T08:36:40.985Z,30.35
2018-07-02T08:37:41.001Z,30.25
2018-07-02T08:38:41.018Z,29.66
2018-07-02T08:39:41.041Z,29.61
2018-07-02T08:40:41.052Z,29.65
2018-07-02T08:41:41.070Z,30.31
2018-07-02T08:42:41.086Z,30.83
2018-07-02T08:43:41.104Z,30.70
2018-07-02T08:44:41.119Z,30.62
2018-07-02T08:45:41.136Z,31.03
2018-07-02T08:46:41.158Z,31.42
2018-07-02T08:47:41.168Z,31.29
2018-07-02T08:48:41.188Z,31.02
2018-07-02T08:49:41.204Z,30.70
2018-07-02T08:50:41.227Z,30.80
2018-07-02T08:51:41.240Z,30.91
2018-07-02T08:52:41.269Z,30.47
2018-07-02T08:53:41.272Z,30.99
2018-07-02T08:54:41.288Z,30.90
2018-07-02T08:55:41.305Z,31.42
2018-07-02T08:56:41.324Z,31.22
2018-07-02T08:57:41.338Z,30.32
2018-07-02T08:58:41.356Z,30.37
2018-07-02T08:59:41.373Z,30.87
2018-07-02T09:00:41.390Z,31.14
2018-07-02T09:01:41.408Z,31.18
2018-07-02T09:02:41.427Z,31.52
2018-07-02T09:03:41.442Z,31.59
2018-07-02T09:04:41.458Z,30.19
2018-07-02T09:05:41.476Z,29.88
2018-07-02T09:06:41.493Z,29.38
2018-07-02T09:07:41.509Z,29.98
2018-07-02T09:08:41.527Z,30.31
2018-07-02T09:09:41.543Z,30.91
2018-07-02T09:10:41.560Z,31.37
2018-07-02T09:11:41.577Z,31.42
2018-07-02T09:12:41.594Z,31.89
2018-07-02T09:13:41.611Z,31.18
2018-07-02T09:14:41.654Z,31.56
2018-07-02T09:15:41.645Z,31.93
2018-07-02T09:16:41.663Z,30.73
2018-07-02T09:17:41.701Z,29.81
2018-07-02T09:18:41.697Z,30.44
2018-07-02T09:19:41.715Z,31.00
2018-07-02T09:20:41.750Z,31.22
2018-07-02T09:21:41.749Z,31.54
2018-07-02T09:22:41.765Z,31.02
2018-07-02T09:23:41.792Z,31.17
2018-07-02T09:24:41.799Z,30.90
2018-07-02T09:25:41.815Z,30.35
2018-07-02T09:26:41.834Z,28.76
2018-07-02T09:27:41.849Z,28.94
2018-07-02T09:28:41.867Z,29.44
2018-07-02T09:29:41.884Z,29.56
2018-07-02T09:30:41.900Z,29.36
2018-07-02T09:31:41.921Z,29.97
2018-07-02T09:32:42.019Z,30.27
2018-07-02T09:33:41.951Z,29.78
2018-07-02T09:34:41.969Z,30.50
2018-07-02T09:35:41.984Z,31.10
2018-07-02T09:36:42.001Z,31.51
2018-07-02T09:37:42.018Z,30.88
2018-07-02T09:38:42.035Z,30.46
2018-07-02T09:39:42.057Z,30.90
2018-07-02T09:40:42.068Z,30.91
2018-07-02T09:41:42.085Z,30.85
2018-07-02T09:42:42.104Z,31.29
2018-07-02T09:43:42.117Z,31.14
2018-07-02T09:44:42.135Z,31.31
2018-07-02T09:45:42.151Z,31.43
2018-07-02T09:46:42.168Z,30.81
2018-07-02T09:47:42.184Z,30.72
2018-07-02T09:48:42.201Z,30.69
2018-07-02T09:49:42.217Z,29.56
2018-07-02T09:50:42.235Z,30.03
2018-07-02T09:51:42.249Z,30.03
2018-07-02T09:52:42.267Z,30.48
2018-07-02T09:53:42.286Z,30.25
2018-07-02T09:54:42.299Z,30.68
2018-07-02T09:55:42.315Z,30.78
2018-07-02T09:56:42.336Z,31.25
2018-07-02T09:57:42.348Z,31.46
2018-07-02T09:58:42.363Z,31.76
2018-07-02T09:59:42.385Z,31.51
2018-07-02T10:00:42.467Z,31.31
2018-07-02T10:01:42.412Z,30.70
2018-07-02T10:02:42.430Z,30.87
2018-07-02T10:03:42.445Z,31.40
2018-07-02T10:04:42.478Z,31.42
2018-07-02T10:05:42.478Z,31.02
2018-07-02T10:06:42.574Z,30.21
2018-07-02T10:07:42.511Z,30.48
2018-07-02T10:08:42.526Z,30.48
2018-07-02T10:09:42.543Z,30.00
2018-07-02T10:10:42.559Z,29.81
2018-07-02T10:11:42.573Z,30.00
2018-07-02T10:12:42.618Z,30.80
2018-07-02T10:13:42.607Z,31.02
2018-07-02T10:14:42.623Z,30.68
2018-07-02T10:15:42.639Z,30.51
2018-07-02T10:16:42.655Z,30.19
2018-07-02T10:17:42.671Z,30.24
2018-07-02T10:18:42.690Z,30.72
2018-07-02T10:19:42.704Z,31.20
2018-07-02T10:20:42.719Z,31.51
2018-07-02T10:21:42.734Z,30.63
2018-07-02T10:22:42.749Z,30.65
2018-07-02T10:23:42.853Z,29.53
2018-07-02T10:24:42.781Z,29.86
2018-07-02T10:25:42.799Z,30.24
2018-07-02T10:26:42.814Z,30.51
2018-07-02T10:27:42.827Z,30.48
2018-07-02T10:28:42.845Z,30.54
2018-07-02T10:29:42.859Z,30.47
2018-07-02T10:30:42.925Z,31.15
2018-07-02T10:31:42.891Z,30.66
2018-07-02T10:32:42.907Z,30.15
2018-07-02T10:33:42.922Z,30.47
2018-07-02T10:34:42.951Z,29.69
2018-07-02T10:35:42.955Z,28.81
2018-07-02T10:36:42.969Z,29.53
2018-07-02T10:37:42.988Z,30.00
2018-07-02T10:38:43.000Z,30.21
2018-07-02T10:39:43.017Z,30.27
2018-07-02T10:40:43.029Z,30.12
2018-07-02T10:41:43.046Z,30.61
2018-07-02T10:42:43.061Z,30.87
2018-07-02T10:43:43.078Z,30.46
2018-07-02T10:44:43.093Z,30.28
2018-07-02T10:45:43.106Z,30.47
2018-07-02T10:46:43.121Z,30.69
2018-07-02T10:47:43.140Z,30.53
2018-07-02T10:48:43.151Z,30.21
2018-07-02T10:49:43.166Z,30.48
2018-07-02T10:50:43.180Z,30.90
2018-07-02T10:51:43.196Z,30.34
2018-07-02T10:52:43.211Z,30.03
2018-07-02T10:53:43.226Z,30.80
2018-07-02T10:54:43.241Z,30.73
2018-07-02T10:55:43.271Z,29.56
2018-07-02T10:56:43.271Z,29.79
2018-07-02T10:57:43.286Z,30.28
2018-07-02T10:58:43.305Z,30.81
2018-07-02T10:59:43.317Z,30.99
2018-07-02T11:00:43.334Z,31.14
2018-07-02T11:01:43.348Z,30.30
2018-07-02T11:02:43.360Z,30.39
2018-07-02T11:03:43.376Z,29.94
2018-07-02T11:04:43.390Z,29.84
2018-07-02T11:05:43.404Z,30.06
2018-07-02T11:06:43.419Z,29.86
2018-07-02T11:07:43.436Z,29.95
2018-07-02T11:08:43.449Z,30.40
2018-07-02T11:09:43.463Z,29.57
2018-07-02T11:10:43.477Z,29.65
2018-07-02T11:11:43.493Z,29.45
2018-07-02T11:12:43.508Z,29.36
2018-07-02T11:13:43.521Z,29.38
2018-07-02T11:14:43.537Z,29.84
2018-07-02T11:15:43.551Z,30.27
2018-07-02T11:16:43.567Z,30.03
2018-07-02T11:17:43.579Z,29.68
2018-07-02T11:18:43.596Z,29.36
2018-07-02T11:19:43.607Z,29.34
2018-07-02T11:20:43.621Z,29.44
2018-07-02T11:21:43.634Z,29.05
2018-07-02T11:22:43.655Z,28.75
2018-07-02T11:23:43.676Z,28.62
2018-07-02T11:24:43.674Z,28.30
2018-07-02T11:25:43.695Z,27.87
2018-07-02T11:26:43.703Z,27.65
2018-07-02T11:27:43.714Z,27.68
2018-07-02T11:28:43.733Z,27.92
2018-07-02T11:29:43.741Z,27.89
2018-07-02T11:30:43.756Z,27.78
2018-07-02T11:31:43.768Z,27.60
2018-07-02T11:32:43.788Z,27.75
2018-07-02T11:33:43.794Z,27.77
2018-07-02T11:34:43.807Z,27.65
2018-07-02T11:35:43.820Z,27.47
2018-07-02T11:36:43.831Z,27.58
2018-07-02T11:37:43.844Z,27.45
2018-07-02T11:38:43.858Z,27.68
2018-07-02T11:39:43.874Z,27.47
2018-07-02T11:40:43.881Z,27.37
2018-07-02T11:41:43.894Z,27.18
2018-07-02T11:42:43.906Z,27.02
2018-07-02T11:43:43.917Z,27.08
2018-07-02T11:44:43.929Z,27.11
2018-07-02T11:45:43.943Z,26.80
2018-07-02T11:46:43.954Z,26.74
2018-07-02T11:47:43.964Z,26.73
2018-07-02T11:48:43.977Z,26.81
2018-07-02T11:49:44.029Z,26.99
2018-07-02T11:50:44.002Z,27.35
2018-07-02T11:51:44.011Z,26.81
2018-07-02T11:52:44.024Z,26.40
2018-07-02T11:53:44.035Z,26.66
2018-07-02T11:54:44.048Z,26.74
2018-07-02T11:55:44.057Z,26.77
2018-07-02T11:56:44.069Z,26.80
2018-07-02T11:57:44.081Z,26.37
2018-07-02T11:58:44.092Z,26.13
2018-07-02T11:59:44.101Z,26.23
2018-07-02T12:00:44.114Z,26.56
2018-07-02T12:01:44.126Z,26.92
2018-07-02T12:02:44.136Z,26.68
2018-07-02T12:03:44.146Z,26.66
2018-07-02T12:04:44.157Z,26.68
2018-07-02T12:05:44.168Z,26.51
2018-07-02T12:06:44.178Z,26.52
2018-07-02T12:07:44.188Z,26.71
2018-07-02T12:08:44.199Z,26.77
2018-07-02T12:09:44.212Z,26.68
2018-07-02T12:10:44.221Z,26.68
2018-07-02T12:11:44.230Z,26.74
2018-07-02T12:12:44.240Z,26.85
2018-07-02T12:13:44.252Z,26.85
2018-07-02T12:14:44.262Z,27.07
2018-07-02T12:15:44.270Z,27.20
2018-07-02T12:16:44.284Z,27.25
2018-07-02T12:17:44.293Z,27.08
2018-07-02T12:18:44.303Z,26.84
2018-07-02T12:19:44.311Z,26.62
2018-07-02T12:20:44.322Z,26.44
2018-07-02T12:21:44.332Z,26.53
2018-07-02T12:22:44.342Z,26.70
2018-07-02T12:23:44.352Z,26.48
2018-07-02T12:24:44.362Z,26.40
2018-07-02T12:25:44.372Z,26.22
2018-07-02T12:26:44.382Z,26.28
2018-07-02T12:27:44.391Z,26.40
2018-07-02T12:28:44.401Z,26.68
2018-07-02T12:29:44.411Z,26.89
2018-07-02T12:30:44.421Z,26.51
2018-07-02T12:31:44.429Z,26.68
2018-07-02T12:32:44.439Z,26.78
2018-07-02T12:33:44.450Z,26.90
2018-07-02T12:34:44.460Z,26.93
2018-07-02T12:35:44.469Z,26.97
2018-07-02T12:36:44.479Z,27.08
2018-07-02T12:37:44.491Z,27.12
2018-07-02T12:38:44.499Z,27.18
2018-07-02T12:39:44.508Z,27.02
2018-07-02T12:40:44.517Z,27.20
2018-07-02T12:41:44.528Z,27.14
2018-07-02T12:42:44.537Z,26.48
2018-07-02T12:43:44.546Z,26.70
2018-07-02T12:44:44.555Z,26.56
2018-07-02T12:45:44.566Z,26.70
2018-07-02T12:46:44.597Z,26.71
2018-07-02T12:47:44.587Z,26.99
2018-07-02T12:48:44.594Z,26.70
2018-07-02T12:49:44.603Z,26.74
2018-07-02T12:50:44.613Z,26.89
2018-07-02T12:51:44.623Z,26.92
2018-07-02T12:52:44.630Z,26.97